Terminal Aerodrome Forecast
Issued by NWS Cleveland, OH

Home | Current Version | Previous Version | Text Only | Print | Product List | Glossary Off
Versions: 1 2 3 4 5 6 7 8 9 10 11 12 13 14 15 16 17 18 19 20 21 22 23 24

000
FTUS41 KCLE 032300
TAFTOL
TAF
KTOL 032320Z 0400/0424 20010KT P6SM SCT080 BKN250
     FM041400 22012G18KT P6SM VCSH BKN045 OVC100
     FM041900 24014G22KT 5SM -SHRA VCTS OVC025CB=

USA.gov is the U.S. government's official web portal to all federal, state and local government web resources and services.